Terminal Aerodrome Forecast
Issued by NWS St Louis, MO

Home | Current Version | Previous Version | Text Only | Print | Product List | Glossary On
Versions: 1 2 3 4 5 6 7 8 9 10 11 12 13 14 15 16 17 18 19 20 21 22 23 24 25
000
FTUS43 KLSX 312136 AAC
TAFSTL
TAF AMD
KSTL 312136Z 3122/0124 14012KT P6SM VCTS SCT050CB SCT250
      TEMPO 3123/0101 3SM TSRA BKN030CB
     FM010100 17005KT P6SM SCT035 BKN080
     FM011400 21007KT P6SM SCT050=

USA.gov is the U.S. government's official web portal to all federal, state and local government web resources and services.